sensor_id;sensor_type;location;lat;lon;timestamp;P1;durP1;ratioP1;P2;durP2;ratioP2
57842;SDS011;43673;51.058;3.734;2022-12-07T00:01:06;12.88;;;8.30;;
57842;SDS011;43673;51.058;3.734;2022-12-07T00:03:36;14.15;;;8.77;;
57842;SDS011;43673;51.058;3.734;2022-12-07T00:06:03;14.68;;;9.07;;
57842;SDS011;43673;51.058;3.734;2022-12-07T00:08:31;10.48;;;7.97;;
57842;SDS011;43673;51.058;3.734;2022-12-07T00:11:05;9.35;;;7.70;;
57842;SDS011;43673;51.058;3.734;2022-12-07T00:13:33;15.82;;;8.75;;
57842;SDS011;43673;51.058;3.734;2022-12-07T00:16:03;10.30;;;6.70;;
57842;SDS011;43673;51.058;3.734;2022-12-07T00:18:33;11.35;;;7.20;;
57842;SDS011;43673;51.058;3.734;2022-12-07T00:21:08;9.30;;;6.07;;
57842;SDS011;43673;51.058;3.734;2022-12-07T00:23:37;11.90;;;6.80;;
57842;SDS011;43673;51.058;3.734;2022-12-07T00:26:03;10.27;;;5.63;;
57842;SDS011;43673;51.058;3.734;2022-12-07T00:28:33;12.55;;;6.20;;
57842;SDS011;43673;51.058;3.734;2022-12-07T00:31:00;13.10;;;6.75;;
57842;SDS011;43673;51.058;3.734;2022-12-07T00:33:27;7.20;;;4.95;;
57842;SDS011;43673;51.058;3.734;2022-12-07T00:35:57;9.73;;;5.00;;
57842;SDS011;43673;51.058;3.734;2022-12-07T00:38:24;8.73;;;4.75;;
57842;SDS011;43673;51.058;3.734;2022-12-07T00:40:58;8.15;;;5.05;;
57842;SDS011;43673;51.058;3.734;2022-12-07T00:43:26;8.18;;;5.10;;
57842;SDS011;43673;51.058;3.734;2022-12-07T00:45:52;6.50;;;4.82;;
57842;SDS011;43673;51.058;3.734;2022-12-07T00:48:18;8.30;;;6.10;;
57842;SDS011;43673;51.058;3.734;2022-12-07T00:50:44;10.93;;;4.88;;
57842;SDS011;43673;51.058;3.734;2022-12-07T00:53:09;12.05;;;5.82;;
57842;SDS011;43673;51.058;3.734;2022-12-07T00:55:35;7.28;;;4.57;;
57842;SDS011;43673;51.058;3.734;2022-12-07T00:58:02;7.88;;;3.85;;
57842;SDS011;43673;51.058;3.734;2022-12-07T01:00:28;9.32;;;4.15;;
57842;SDS011;43673;51.058;3.734;2022-12-07T01:02:54;9.45;;;4.30;;
57842;SDS011;43673;51.058;3.734;2022-12-07T01:05:19;15.00;;;5.38;;
57842;SDS011;43673;51.058;3.734;2022-12-07T01:07:45;6.32;;;3.95;;
57842;SDS011;43673;51.058;3.734;2022-12-07T01:10:11;7.30;;;3.35;;
57842;SDS011;43673;51.058;3.734;2022-12-07T01:12:38;6.15;;;3.58;;
57842;SDS011;43673;51.058;3.734;2022-12-07T01:15:04;11.68;;;4.40;;
57842;SDS011;43673;51.058;3.734;2022-12-07T01:17:31;8.38;;;4.13;;
57842;SDS011;43673;51.058;3.734;2022-12-07T01:19:57;9.00;;;5.35;;
57842;SDS011;43673;51.058;3.734;2022-12-07T01:22:22;11.00;;;4.68;;
57842;SDS011;43673;51.058;3.734;2022-12-07T01:24:48;10.25;;;4.82;;
57842;SDS011;43673;51.058;3.734;2022-12-07T01:27:14;7.55;;;5.03;;
57842;SDS011;43673;51.058;3.734;2022-12-07T01:29:40;8.65;;;3.83;;
57842;SDS011;43673;51.058;3.734;2022-12-07T01:32:06;8.02;;;4.72;;
57842;SDS011;43673;51.058;3.734;2022-12-07T01:34:34;8.98;;;4.97;;
57842;SDS011;43673;51.058;3.734;2022-12-07T01:37:00;9.65;;;5.22;;
57842;SDS011;43673;51.058;3.734;2022-12-07T01:39:25;6.40;;;4.28;;
57842;SDS011;43673;51.058;3.734;2022-12-07T01:41:52;8.05;;;5.28;;
57842;SDS011;43673;51.058;3.734;2022-12-07T01:49:31;10.23;;;5.40;;
57842;SDS011;43673;51.058;3.734;2022-12-07T01:52:24;7.72;;;5.78;;
57842;SDS011;43673;51.058;3.734;2022-12-07T01:54:54;7.93;;;5.63;;
57842;SDS011;43673;51.058;3.734;2022-12-07T01:57:23;10.93;;;5.55;;
57842;SDS011;43673;51.058;3.734;2022-12-07T01:59:50;9.10;;;6.93;;
57842;SDS011;43673;51.058;3.734;2022-12-07T02:02:23;8.38;;;6.18;;
57842;SDS011;43673;51.058;3.734;2022-12-07T02:04:53;10.55;;;6.47;;
57842;SDS011;43673;51.058;3.734;2022-12-07T02:07:20;13.25;;;7.50;;
57842;SDS011;43673;51.058;3.734;2022-12-07T02:09:48;10.23;;;6.10;;
57842;SDS011;43673;51.058;3.734;2022-12-07T02:12:13;11.63;;;6.43;;
57842;SDS011;43673;51.058;3.734;2022-12-07T02:14:39;12.07;;;7.20;;
57842;SDS011;43673;51.058;3.734;2022-12-07T02:17:13;11.32;;;6.38;;
57842;SDS011;43673;51.058;3.734;2022-12-07T02:20:16;12.23;;;7.10;;
57842;SDS011;43673;51.058;3.734;2022-12-07T02:23:31;10.63;;;6.57;;
57842;SDS011;43673;51.058;3.734;2022-12-07T02:28:53;10.68;;;7.03;;
57842;SDS011;43673;51.058;3.734;2022-12-07T02:34:49;13.13;;;6.90;;
57842;SDS011;43673;51.058;3.734;2022-12-07T02:37:27;15.02;;;7.60;;
57842;SDS011;43673;51.058;3.734;2022-12-07T02:40:18;11.05;;;7.10;;
57842;SDS011;43673;51.058;3.734;2022-12-07T02:43:01;10.07;;;6.63;;
57842;SDS011;43673;51.058;3.734;2022-12-07T02:45:40;11.02;;;7.40;;
57842;SDS011;43673;51.058;3.734;2022-12-07T02:48:08;11.45;;;6.68;;
57842;SDS011;43673;51.058;3.734;2022-12-07T02:50:36;12.05;;;6.75;;
57842;SDS011;43673;51.058;3.734;2022-12-07T02:53:02;10.27;;;6.20;;
57842;SDS011;43673;51.058;3.734;2022-12-07T02:55:30;9.75;;;6.30;;
57842;SDS011;43673;51.058;3.734;2022-12-07T02:58:06;12.35;;;6.53;;
57842;SDS011;43673;51.058;3.734;2022-12-07T03:01:05;8.93;;;5.75;;
57842;SDS011;43673;51.058;3.734;2022-12-07T03:03:39;10.93;;;5.57;;
57842;SDS011;43673;51.058;3.734;2022-12-07T03:08:49;9.57;;;5.53;;
57842;SDS011;43673;51.058;3.734;2022-12-07T03:11:25;13.27;;;6.97;;
57842;SDS011;43673;51.058;3.734;2022-12-07T03:14:18;10.25;;;6.15;;
57842;SDS011;43673;51.058;3.734;2022-12-07T03:16:57;10.98;;;6.07;;
57842;SDS011;43673;51.058;3.734;2022-12-07T03:19:44;7.22;;;5.45;;
57842;SDS011;43673;51.058;3.734;2022-12-07T03:22:12;7.65;;;5.75;;
57842;SDS011;43673;51.058;3.734;2022-12-07T03:24:41;8.20;;;6.20;;
57842;SDS011;43673;51.058;3.734;2022-12-07T03:29:45;11.93;;;5.53;;
57842;SDS011;43673;51.058;3.734;2022-12-07T03:32:30;7.90;;;5.30;;
57842;SDS011;43673;51.058;3.734;2022-12-07T03:35:06;8.50;;;5.97;;
57842;SDS011;43673;51.058;3.734;2022-12-07T03:40:27;11.35;;;6.05;;
57842;SDS011;43673;51.058;3.734;2022-12-07T03:43:15;10.95;;;5.88;;
57842;SDS011;43673;51.058;3.734;2022-12-07T03:45:43;8.93;;;5.72;;
57842;SDS011;43673;51.058;3.734;2022-12-07T03:48:22;7.47;;;5.32;;
57842;SDS011;43673;51.058;3.734;2022-12-07T03:51:22;7.70;;;4.82;;
57842;SDS011;43673;51.058;3.734;2022-12-07T03:54:01;8.52;;;5.82;;
57842;SDS011;43673;51.058;3.734;2022-12-07T03:56:33;8.20;;;4.70;;
57842;SDS011;43673;51.058;3.734;2022-12-07T03:59:00;6.28;;;3.67;;
57842;SDS011;43673;51.058;3.734;2022-12-07T04:01:26;6.55;;;4.20;;
57842;SDS011;43673;51.058;3.734;2022-12-07T04:03:52;10.75;;;4.50;;
57842;SDS011;43673;51.058;3.734;2022-12-07T04:06:18;10.82;;;4.13;;
57842;SDS011;43673;51.058;3.734;2022-12-07T04:08:44;6.63;;;4.32;;
57842;SDS011;43673;51.058;3.734;2022-12-07T04:11:10;9.95;;;5.75;;
57842;SDS011;43673;51.058;3.734;2022-12-07T04:13:35;12.57;;;5.20;;
57842;SDS011;43673;51.058;3.734;2022-12-07T04:16:21;8.68;;;3.85;;
57842;SDS011;43673;51.058;3.734;2022-12-07T04:18:47;9.32;;;4.00;;
57842;SDS011;43673;51.058;3.734;2022-12-07T04:21:13;12.88;;;4.13;;
57842;SDS011;43673;51.058;3.734;2022-12-07T04:23:38;7.82;;;3.80;;
57842;SDS011;43673;51.058;3.734;2022-12-07T04:26:04;11.60;;;4.18;;
57842;SDS011;43673;51.058;3.734;2022-12-07T04:28:30;15.63;;;5.30;;
57842;SDS011;43673;51.058;3.734;2022-12-07T04:30:55;10.55;;;3.83;;
57842;SDS011;43673;51.058;3.734;2022-12-07T04:33:21;6.60;;;3.50;;
57842;SDS011;43673;51.058;3.734;2022-12-07T04:35:47;7.63;;;3.25;;
57842;SDS011;43673;51.058;3.734;2022-12-07T04:38:13;9.57;;;5.70;;
57842;SDS011;43673;51.058;3.734;2022-12-07T04:40:39;9.70;;;4.85;;
57842;SDS011;43673;51.058;3.734;2022-12-07T04:43:04;9.75;;;5.88;;
57842;SDS011;43673;51.058;3.734;2022-12-07T04:45:30;8.40;;;4.10;;
57842;SDS011;43673;51.058;3.734;2022-12-07T04:47:55;9.70;;;4.05;;
57842;SDS011;43673;51.058;3.734;2022-12-07T04:50:21;11.88;;;4.07;;
57842;SDS011;43673;51.058;3.734;2022-12-07T04:52:47;7.88;;;5.03;;
57842;SDS011;43673;51.058;3.734;2022-12-07T04:55:13;10.65;;;4.30;;
57842;SDS011;43673;51.058;3.734;2022-12-07T05:00:18;10.25;;;4.28;;
57842;SDS011;43673;51.058;3.734;2022-12-07T05:02:44;10.65;;;4.18;;
57842;SDS011;43673;51.058;3.734;2022-12-07T05:05:09;7.43;;;4.20;;
57842;SDS011;43673;51.058;3.734;2022-12-07T05:07:35;6.65;;;4.75;;
57842;SDS011;43673;51.058;3.734;2022-12-07T05:10:01;6.78;;;3.42;;
57842;SDS011;43673;51.058;3.734;2022-12-07T05:12:26;16.92;;;5.93;;
57842;SDS011;43673;51.058;3.734;2022-12-07T05:14:52;8.35;;;4.07;;
57842;SDS011;43673;51.058;3.734;2022-12-07T05:17:18;8.60;;;3.90;;
57842;SDS011;43673;51.058;3.734;2022-12-07T05:19:43;10.35;;;3.72;;
57842;SDS011;43673;51.058;3.734;2022-12-07T05:22:09;5.63;;;3.45;;
57842;SDS011;43673;51.058;3.734;2022-12-07T05:24:35;8.38;;;3.45;;
57842;SDS011;43673;51.058;3.734;2022-12-07T05:27:01;8.93;;;4.30;;
57842;SDS011;43673;51.058;3.734;2022-12-07T05:29:26;7.93;;;4.72;;
57842;SDS011;43673;51.058;3.734;2022-12-07T05:31:52;10.02;;;3.85;;
57842;SDS011;43673;51.058;3.734;2022-12-07T05:34:18;6.65;;;3.35;;
57842;SDS011;43673;51.058;3.734;2022-12-07T05:36:43;6.43;;;3.20;;
57842;SDS011;43673;51.058;3.734;2022-12-07T05:39:09;4.97;;;3.60;;
57842;SDS011;43673;51.058;3.734;2022-12-07T05:41:35;8.05;;;3.00;;
57842;SDS011;43673;51.058;3.734;2022-12-07T05:44:19;7.28;;;4.07;;
57842;SDS011;43673;51.058;3.734;2022-12-07T05:46:45;8.80;;;3.80;;
57842;SDS011;43673;51.058;3.734;2022-12-07T05:49:11;10.68;;;3.38;;
57842;SDS011;43673;51.058;3.734;2022-12-07T05:51:36;9.65;;;3.33;;
57842;SDS011;43673;51.058;3.734;2022-12-07T05:54:02;6.03;;;3.13;;
57842;SDS011;43673;51.058;3.734;2022-12-07T05:56:28;6.38;;;2.88;;
57842;SDS011;43673;51.058;3.734;2022-12-07T05:58:53;12.20;;;4.75;;
57842;SDS011;43673;51.058;3.734;2022-12-07T06:01:38;7.78;;;3.33;;
57842;SDS011;43673;51.058;3.734;2022-12-07T06:04:03;10.48;;;4.40;;
57842;SDS011;43673;51.058;3.734;2022-12-07T06:06:29;9.05;;;3.97;;
57842;SDS011;43673;51.058;3.734;2022-12-07T06:08:55;10.52;;;4.38;;
57842;SDS011;43673;51.058;3.734;2022-12-07T06:11:20;13.30;;;5.18;;
57842;SDS011;43673;51.058;3.734;2022-12-07T06:14:05;9.80;;;4.22;;
57842;SDS011;43673;51.058;3.734;2022-12-07T06:16:30;6.88;;;4.03;;
57842;SDS011;43673;51.058;3.734;2022-12-07T06:18:56;10.35;;;4.63;;
57842;SDS011;43673;51.058;3.734;2022-12-07T06:21:21;12.88;;;4.57;;
57842;SDS011;43673;51.058;3.734;2022-12-07T06:23:47;10.02;;;5.18;;
57842;SDS011;43673;51.058;3.734;2022-12-07T06:26:13;8.68;;;5.60;;
57842;SDS011;43673;51.058;3.734;2022-12-07T06:28:39;6.22;;;3.88;;
57842;SDS011;43673;51.058;3.734;2022-12-07T06:31:05;8.45;;;3.97;;
57842;SDS011;43673;51.058;3.734;2022-12-07T06:33:32;13.85;;;3.97;;
57842;SDS011;43673;51.058;3.734;2022-12-07T06:35:58;12.73;;;5.03;;
57842;SDS011;43673;51.058;3.734;2022-12-07T06:38:23;9.88;;;3.92;;
57842;SDS011;43673;51.058;3.734;2022-12-07T06:40:49;9.38;;;4.95;;
57842;SDS011;43673;51.058;3.734;2022-12-07T06:43:15;12.77;;;5.10;;
57842;SDS011;43673;51.058;3.734;2022-12-07T06:45:41;13.32;;;6.03;;
57842;SDS011;43673;51.058;3.734;2022-12-07T06:48:07;12.52;;;5.07;;
57842;SDS011;43673;51.058;3.734;2022-12-07T06:50:33;6.68;;;4.15;;
57842;SDS011;43673;51.058;3.734;2022-12-07T06:52:59;12.50;;;4.70;;
57842;SDS011;43673;51.058;3.734;2022-12-07T06:55:24;9.32;;;4.88;;
57842;SDS011;43673;51.058;3.734;2022-12-07T06:57:50;9.85;;;5.35;;
57842;SDS011;43673;51.058;3.734;2022-12-07T07:00:16;8.88;;;3.70;;
57842;SDS011;43673;51.058;3.734;2022-12-07T07:02:42;14.18;;;5.07;;
57842;SDS011;43673;51.058;3.734;2022-12-07T07:05:07;17.80;;;3.92;;
57842;SDS011;43673;51.058;3.734;2022-12-07T07:07:33;15.77;;;4.82;;
57842;SDS011;43673;51.058;3.734;2022-12-07T07:09:59;9.18;;;4.32;;
57842;SDS011;43673;51.058;3.734;2022-12-07T07:12:25;11.75;;;4.30;;
57842;SDS011;43673;51.058;3.734;2022-12-07T07:14:50;9.85;;;4.55;;
57842;SDS011;43673;51.058;3.734;2022-12-07T07:17:16;14.48;;;5.90;;
57842;SDS011;43673;51.058;3.734;2022-12-07T07:19:42;11.93;;;5.78;;
57842;SDS011;43673;51.058;3.734;2022-12-07T07:22:07;12.15;;;6.05;;
57842;SDS011;43673;51.058;3.734;2022-12-07T07:24:33;10.65;;;5.60;;
57842;SDS011;43673;51.058;3.734;2022-12-07T07:26:59;7.47;;;4.10;;
57842;SDS011;43673;51.058;3.734;2022-12-07T07:29:25;8.75;;;4.38;;
57842;SDS011;43673;51.058;3.734;2022-12-07T07:31:50;9.70;;;4.18;;
57842;SDS011;43673;51.058;3.734;2022-12-07T07:34:16;8.65;;;3.88;;
57842;SDS011;43673;51.058;3.734;2022-12-07T07:36:42;8.60;;;4.63;;
57842;SDS011;43673;51.058;3.734;2022-12-07T07:39:09;8.80;;;3.83;;
57842;SDS011;43673;51.058;3.734;2022-12-07T07:41:37;10.70;;;4.15;;
57842;SDS011;43673;51.058;3.734;2022-12-07T07:44:03;9.05;;;3.83;;
57842;SDS011;43673;51.058;3.734;2022-12-07T07:46:29;9.75;;;4.53;;
57842;SDS011;43673;51.058;3.734;2022-12-07T07:48:55;7.93;;;3.92;;
57842;SDS011;43673;51.058;3.734;2022-12-07T07:51:20;11.52;;;5.57;;
57842;SDS011;43673;51.058;3.734;2022-12-07T07:53:46;15.93;;;6.13;;
57842;SDS011;43673;51.058;3.734;2022-12-07T07:56:12;23.77;;;5.47;;
57842;SDS011;43673;51.058;3.734;2022-12-07T07:58:38;12.18;;;6.10;;
57842;SDS011;43673;51.058;3.734;2022-12-07T08:01:07;9.15;;;5.00;;
57842;SDS011;43673;51.058;3.734;2022-12-07T08:03:33;12.18;;;5.38;;
57842;SDS011;43673;51.058;3.734;2022-12-07T08:05:59;11.63;;;4.70;;
57842;SDS011;43673;51.058;3.734;2022-12-07T08:08:26;12.73;;;5.57;;
57842;SDS011;43673;51.058;3.734;2022-12-07T08:10:52;10.88;;;5.13;;
57842;SDS011;43673;51.058;3.734;2022-12-07T08:13:17;9.85;;;4.75;;
57842;SDS011;43673;51.058;3.734;2022-12-07T08:15:43;14.35;;;5.68;;
57842;SDS011;43673;51.058;3.734;2022-12-07T08:18:11;15.70;;;4.82;;
57842;SDS011;43673;51.058;3.734;2022-12-07T08:20:38;9.80;;;4.93;;
57842;SDS011;43673;51.058;3.734;2022-12-07T08:23:04;12.55;;;5.43;;
57842;SDS011;43673;51.058;3.734;2022-12-07T08:25:32;15.00;;;5.65;;
57842;SDS011;43673;51.058;3.734;2022-12-07T08:27:58;13.10;;;4.80;;
57842;SDS011;43673;51.058;3.734;2022-12-07T08:30:25;19.02;;;4.85;;
57842;SDS011;43673;51.058;3.734;2022-12-07T08:32:51;14.85;;;4.43;;
57842;SDS011;43673;51.058;3.734;2022-12-07T08:35:17;13.07;;;5.25;;
57842;SDS011;43673;51.058;3.734;2022-12-07T08:37:43;8.75;;;4.20;;
57842;SDS011;43673;51.058;3.734;2022-12-07T08:40:09;9.32;;;4.53;;
57842;SDS011;43673;51.058;3.734;2022-12-07T08:42:43;10.27;;;4.22;;
57842;SDS011;43673;51.058;3.734;2022-12-07T08:45:18;9.63;;;4.40;;
57842;SDS011;43673;51.058;3.734;2022-12-07T08:47:48;9.68;;;4.88;;
57842;SDS011;43673;51.058;3.734;2022-12-07T08:50:26;13.93;;;6.45;;
57842;SDS011;43673;51.058;3.734;2022-12-07T08:52:53;11.75;;;4.40;;
57842;SDS011;43673;51.058;3.734;2022-12-07T08:55:22;20.73;;;5.20;;
57842;SDS011;43673;51.058;3.734;2022-12-07T08:57:49;12.52;;;4.47;;
57842;SDS011;43673;51.058;3.734;2022-12-07T09:00:16;10.10;;;4.53;;
57842;SDS011;43673;51.058;3.734;2022-12-07T09:02:43;14.43;;;5.63;;
57842;SDS011;43673;51.058;3.734;2022-12-07T09:05:09;11.85;;;4.72;;
57842;SDS011;43673;51.058;3.734;2022-12-07T09:07:35;10.15;;;4.10;;
57842;SDS011;43673;51.058;3.734;2022-12-07T09:10:02;11.68;;;4.68;;
57842;SDS011;43673;51.058;3.734;2022-12-07T09:12:29;9.85;;;4.45;;
57842;SDS011;43673;51.058;3.734;2022-12-07T09:14:55;9.85;;;4.68;;
57842;SDS011;43673;51.058;3.734;2022-12-07T09:17:21;20.40;;;5.30;;
57842;SDS011;43673;51.058;3.734;2022-12-07T09:19:47;11.43;;;3.30;;
57842;SDS011;43673;51.058;3.734;2022-12-07T09:22:12;8.38;;;3.25;;
57842;SDS011;43673;51.058;3.734;2022-12-07T09:24:38;13.57;;;3.85;;
57842;SDS011;43673;51.058;3.734;2022-12-07T09:27:04;15.10;;;4.40;;
57842;SDS011;43673;51.058;3.734;2022-12-07T09:29:30;8.80;;;3.42;;
57842;SDS011;43673;51.058;3.734;2022-12-07T09:31:56;12.70;;;4.90;;
57842;SDS011;43673;51.058;3.734;2022-12-07T09:34:21;7.55;;;4.50;;
57842;SDS011;43673;51.058;3.734;2022-12-07T09:36:47;6.63;;;3.83;;
57842;SDS011;43673;51.058;3.734;2022-12-07T09:39:14;9.63;;;4.90;;
57842;SDS011;43673;51.058;3.734;2022-12-07T09:41:41;9.65;;;4.13;;
57842;SDS011;43673;51.058;3.734;2022-12-07T09:44:13;8.33;;;3.63;;
57842;SDS011;43673;51.058;3.734;2022-12-07T09:46:46;6.18;;;3.92;;
57842;SDS011;43673;51.058;3.734;2022-12-07T09:49:14;8.55;;;3.85;;
57842;SDS011;43673;51.058;3.734;2022-12-07T09:51:44;10.68;;;3.63;;
57842;SDS011;43673;51.058;3.734;2022-12-07T09:54:14;10.20;;;3.17;;
57842;SDS011;43673;51.058;3.734;2022-12-07T09:56:41;8.23;;;4.35;;
57842;SDS011;43673;51.058;3.734;2022-12-07T09:59:17;12.20;;;3.40;;
57842;SDS011;43673;51.058;3.734;2022-12-07T10:01:44;9.88;;;3.40;;
57842;SDS011;43673;51.058;3.734;2022-12-07T10:04:14;10.13;;;3.92;;
57842;SDS011;43673;51.058;3.734;2022-12-07T10:06:46;11.02;;;3.25;;
57842;SDS011;43673;51.058;3.734;2022-12-07T10:09:14;13.07;;;4.28;;
57842;SDS011;43673;51.058;3.734;2022-12-07T10:12:00;11.27;;;3.63;;
57842;SDS011;43673;51.058;3.734;2022-12-07T10:14:36;12.00;;;4.30;;
57842;SDS011;43673;51.058;3.734;2022-12-07T10:17:39;11.43;;;4.13;;
57842;SDS011;43673;51.058;3.734;2022-12-07T10:22:37;9.88;;;4.78;;
57842;SDS011;43673;51.058;3.734;2022-12-07T10:25:36;13.10;;;4.30;;
57842;SDS011;43673;51.058;3.734;2022-12-07T10:28:16;9.57;;;4.03;;
57842;SDS011;43673;51.058;3.734;2022-12-07T10:35:57;9.98;;;4.13;;
57842;SDS011;43673;51.058;3.734;2022-12-07T10:38:24;12.45;;;3.95;;
57842;SDS011;43673;51.058;3.734;2022-12-07T10:41:07;8.85;;;3.88;;
57842;SDS011;43673;51.058;3.734;2022-12-07T10:43:33;12.02;;;4.30;;
57842;SDS011;43673;51.058;3.734;2022-12-07T10:48:50;11.63;;;3.97;;
57842;SDS011;43673;51.058;3.734;2022-12-07T10:51:42;9.48;;;4.03;;
57842;SDS011;43673;51.058;3.734;2022-12-07T11:16:01;8.15;;;3.67;;
57842;SDS011;43673;51.058;3.734;2022-12-07T11:18:29;8.63;;;3.60;;
57842;SDS011;43673;51.058;3.734;2022-12-07T11:26:34;5.53;;;3.53;;
57842;SDS011;43673;51.058;3.734;2022-12-07T11:38:16;6.18;;;4.90;;
57842;SDS011;43673;51.058;3.734;2022-12-07T11:40:48;8.50;;;3.40;;
57842;SDS011;43673;51.058;3.734;2022-12-07T11:45:43;7.22;;;3.20;;
57842;SDS011;43673;51.058;3.734;2022-12-07T11:48:22;9.60;;;3.83;;
57842;SDS011;43673;51.058;3.734;2022-12-07T11:51:11;7.55;;;2.63;;
57842;SDS011;43673;51.058;3.734;2022-12-07T11:53:39;5.50;;;2.95;;
57842;SDS011;43673;51.058;3.734;2022-12-07T11:56:15;9.52;;;3.60;;
57842;SDS011;43673;51.058;3.734;2022-12-07T11:58:49;5.57;;;3.15;;
57842;SDS011;43673;51.058;3.734;2022-12-07T12:06:42;7.03;;;3.72;;
57842;SDS011;43673;51.058;3.734;2022-12-07T12:09:17;12.18;;;4.03;;
57842;SDS011;43673;51.058;3.734;2022-12-07T12:11:48;7.22;;;3.30;;
57842;SDS011;43673;51.058;3.734;2022-12-07T12:22:32;5.20;;;2.60;;
57842;SDS011;43673;51.058;3.734;2022-12-07T12:25:02;4.80;;;2.95;;
57842;SDS011;43673;51.058;3.734;2022-12-07T12:27:40;4.85;;;2.40;;
57842;SDS011;43673;51.058;3.734;2022-12-07T12:33:16;10.07;;;3.55;;
57842;SDS011;43673;51.058;3.734;2022-12-07T12:46:52;8.52;;;4.45;;
57842;SDS011;43673;51.058;3.734;2022-12-07T12:51:49;5.78;;;3.47;;
57842;SDS011;43673;51.058;3.734;2022-12-07T12:56:46;7.72;;;4.68;;
57842;SDS011;43673;51.058;3.734;2022-12-07T12:59:43;7.10;;;3.85;;
57842;SDS011;43673;51.058;3.734;2022-12-07T13:13:25;7.25;;;3.60;;
57842;SDS011;43673;51.058;3.734;2022-12-07T13:15:45;10.65;;;4.05;;
57842;SDS011;43673;51.058;3.734;2022-12-07T13:18:25;4.63;;;2.88;;
57842;SDS011;43673;51.058;3.734;2022-12-07T13:31:38;9.02;;;3.78;;
57842;SDS011;43673;51.058;3.734;2022-12-07T13:37:00;14.00;;;4.65;;
57842;SDS011;43673;51.058;3.734;2022-12-07T13:39:55;11.02;;;4.30;;
57842;SDS011;43673;51.058;3.734;2022-12-07T13:42:29;5.65;;;2.72;;
57842;SDS011;43673;51.058;3.734;2022-12-07T13:44:56;7.63;;;3.50;;
57842;SDS011;43673;51.058;3.734;2022-12-07T13:47:40;8.18;;;3.58;;
57842;SDS011;43673;51.058;3.734;2022-12-07T13:50:29;6.72;;;4.15;;
57842;SDS011;43673;51.058;3.734;2022-12-07T13:53:00;10.80;;;4.10;;
57842;SDS011;43673;51.058;3.734;2022-12-07T13:55:27;11.85;;;5.10;;
57842;SDS011;43673;51.058;3.734;2022-12-07T13:57:54;16.25;;;5.97;;
57842;SDS011;43673;51.058;3.734;2022-12-07T14:00:24;9.52;;;3.97;;
57842;SDS011;43673;51.058;3.734;2022-12-07T14:02:56;8.38;;;3.15;;
57842;SDS011;43673;51.058;3.734;2022-12-07T14:05:26;11.38;;;3.40;;
57842;SDS011;43673;51.058;3.734;2022-12-07T14:15:24;6.97;;;3.55;;
57842;SDS011;43673;51.058;3.734;2022-12-07T14:17:55;4.97;;;2.95;;
57842;SDS011;43673;51.058;3.734;2022-12-07T14:20:41;6.63;;;2.22;;
57842;SDS011;43673;51.058;3.734;2022-12-07T14:23:21;7.85;;;2.10;;
57842;SDS011;43673;51.058;3.734;2022-12-07T14:25:50;4.30;;;2.20;;
57842;SDS011;43673;51.058;3.734;2022-12-07T14:28:25;5.32;;;1.45;;
57842;SDS011;43673;51.058;3.734;2022-12-07T14:30:51;1.60;;;1.30;;
57842;SDS011;43673;51.058;3.734;2022-12-07T14:33:16;4.57;;;1.30;;
57842;SDS011;43673;51.058;3.734;2022-12-07T14:35:43;4.80;;;1.63;;
57842;SDS011;43673;51.058;3.734;2022-12-07T14:38:09;5.63;;;2.60;;
57842;SDS011;43673;51.058;3.734;2022-12-07T14:40:34;3.58;;;1.73;;
57842;SDS011;43673;51.058;3.734;2022-12-07T14:43:01;5.55;;;2.25;;
57842;SDS011;43673;51.058;3.734;2022-12-07T14:45:29;5.65;;;2.70;;
57842;SDS011;43673;51.058;3.734;2022-12-07T14:47:55;5.07;;;1.90;;
57842;SDS011;43673;51.058;3.734;2022-12-07T14:50:21;7.15;;;2.65;;
57842;SDS011;43673;51.058;3.734;2022-12-07T14:52:48;4.80;;;2.15;;
57842;SDS011;43673;51.058;3.734;2022-12-07T14:55:27;6.07;;;2.45;;
57842;SDS011;43673;51.058;3.734;2022-12-07T14:57:54;6.32;;;3.80;;
57842;SDS011;43673;51.058;3.734;2022-12-07T15:00:21;5.78;;;2.30;;
57842;SDS011;43673;51.058;3.734;2022-12-07T15:02:48;8.02;;;2.90;;
57842;SDS011;43673;51.058;3.734;2022-12-07T15:05:14;13.10;;;8.63;;
57842;SDS011;43673;51.058;3.734;2022-12-07T15:07:40;10.65;;;5.25;;
57842;SDS011;43673;51.058;3.734;2022-12-07T15:10:09;6.03;;;3.22;;
57842;SDS011;43673;51.058;3.734;2022-12-07T15:12:40;5.93;;;2.30;;
57842;SDS011;43673;51.058;3.734;2022-12-07T15:15:06;6.75;;;2.50;;
57842;SDS011;43673;51.058;3.734;2022-12-07T15:17:32;9.68;;;3.25;;
57842;SDS011;43673;51.058;3.734;2022-12-07T15:19:57;8.85;;;3.30;;
57842;SDS011;43673;51.058;3.734;2022-12-07T15:22:23;6.78;;;4.20;;
57842;SDS011;43673;51.058;3.734;2022-12-07T15:24:49;8.10;;;2.60;;
57842;SDS011;43673;51.058;3.734;2022-12-07T15:27:15;11.48;;;3.17;;
57842;SDS011;43673;51.058;3.734;2022-12-07T15:29:40;4.50;;;2.60;;
57842;SDS011;43673;51.058;3.734;2022-12-07T15:32:06;12.05;;;4.18;;
57842;SDS011;43673;51.058;3.734;2022-12-07T15:34:31;5.65;;;3.25;;
57842;SDS011;43673;51.058;3.734;2022-12-07T15:36:57;13.70;;;4.00;;
57842;SDS011;43673;51.058;3.734;2022-12-07T15:39:23;20.05;;;10.85;;
57842;SDS011;43673;51.058;3.734;2022-12-07T15:41:48;16.05;;;9.45;;
57842;SDS011;43673;51.058;3.734;2022-12-07T15:44:14;9.20;;;3.63;;
57842;SDS011;43673;51.058;3.734;2022-12-07T15:46:59;9.80;;;4.85;;
57842;SDS011;43673;51.058;3.734;2022-12-07T15:49:25;8.82;;;5.20;;
57842;SDS011;43673;51.058;3.734;2022-12-07T15:51:52;16.48;;;9.25;;
57842;SDS011;43673;51.058;3.734;2022-12-07T15:54:22;10.63;;;5.38;;
57842;SDS011;43673;51.058;3.734;2022-12-07T15:56:50;11.18;;;6.43;;
57842;SDS011;43673;51.058;3.734;2022-12-07T15:59:16;11.20;;;4.72;;
57842;SDS011;43673;51.058;3.734;2022-12-07T16:01:42;9.20;;;4.53;;
57842;SDS011;43673;51.058;3.734;2022-12-07T16:04:08;11.32;;;6.28;;
57842;SDS011;43673;51.058;3.734;2022-12-07T16:06:34;14.40;;;7.28;;
57842;SDS011;43673;51.058;3.734;2022-12-07T16:08:59;17.15;;;7.95;;
57842;SDS011;43673;51.058;3.734;2022-12-07T16:11:25;19.10;;;8.73;;
57842;SDS011;43673;51.058;3.734;2022-12-07T16:13:51;16.30;;;8.45;;
57842;SDS011;43673;51.058;3.734;2022-12-07T16:16:17;12.55;;;5.85;;
57842;SDS011;43673;51.058;3.734;2022-12-07T16:18:44;8.52;;;5.13;;
57842;SDS011;43673;51.058;3.734;2022-12-07T16:21:12;11.02;;;5.13;;
57842;SDS011;43673;51.058;3.734;2022-12-07T16:23:38;11.73;;;5.13;;
57842;SDS011;43673;51.058;3.734;2022-12-07T16:26:12;9.90;;;6.10;;
57842;SDS011;43673;51.058;3.734;2022-12-07T16:28:43;12.90;;;5.80;;
57842;SDS011;43673;51.058;3.734;2022-12-07T16:31:13;14.45;;;5.68;;
57842;SDS011;43673;51.058;3.734;2022-12-07T16:33:41;10.95;;;5.20;;
57842;SDS011;43673;51.058;3.734;2022-12-07T16:36:09;17.30;;;5.97;;
57842;SDS011;43673;51.058;3.734;2022-12-07T16:38:36;12.43;;;5.50;;
57842;SDS011;43673;51.058;3.734;2022-12-07T16:41:03;11.60;;;5.55;;
57842;SDS011;43673;51.058;3.734;2022-12-07T16:43:30;10.85;;;6.07;;
57842;SDS011;43673;51.058;3.734;2022-12-07T16:45:55;19.20;;;10.30;;
57842;SDS011;43673;51.058;3.734;2022-12-07T16:48:21;18.65;;;8.07;;
57842;SDS011;43673;51.058;3.734;2022-12-07T16:50:47;15.73;;;6.53;;
57842;SDS011;43673;51.058;3.734;2022-12-07T16:53:13;11.98;;;7.10;;
57842;SDS011;43673;51.058;3.734;2022-12-07T16:55:41;12.15;;;6.72;;
57842;SDS011;43673;51.058;3.734;2022-12-07T16:58:08;12.00;;;6.63;;
57842;SDS011;43673;51.058;3.734;2022-12-07T17:00:35;10.20;;;6.53;;
57842;SDS011;43673;51.058;3.734;2022-12-07T17:03:02;10.82;;;6.80;;
57842;SDS011;43673;51.058;3.734;2022-12-07T17:05:28;12.88;;;6.85;;
57842;SDS011;43673;51.058;3.734;2022-12-07T17:07:55;11.48;;;6.75;;
57842;SDS011;43673;51.058;3.734;2022-12-07T17:10:21;20.95;;;8.75;;